sensor_id;sensor_type;location;lat;lon;timestamp;P1;durP1;ratioP1;P2;durP2;ratioP2
83707;SDS011;73692;49.562;11.144;2024-03-29T04:48:03;2.20;;;0.90;;
83707;SDS011;73692;49.562;11.144;2024-03-29T04:52:54;1.43;;;0.50;;
83707;SDS011;73692;49.562;11.144;2024-03-29T04:57:45;2.30;;;0.83;;
83707;SDS011;73692;49.562;11.144;2024-03-29T05:02:35;2.17;;;1.00;;
83707;SDS011;73692;49.562;11.144;2024-03-29T05:07:26;2.37;;;1.20;;
83707;SDS011;73692;49.562;11.144;2024-03-29T05:12:17;1.63;;;0.83;;
83707;SDS011;73692;49.562;11.144;2024-03-29T05:17:07;2.10;;;1.30;;
83707;SDS011;73692;49.562;11.144;2024-03-29T05:21:58;1.57;;;0.93;;
83707;SDS011;73692;49.562;11.144;2024-03-29T05:26:49;3.20;;;1.50;;
83707;SDS011;73692;49.562;11.144;2024-03-29T05:31:39;1.53;;;0.90;;
83707;SDS011;73692;49.562;11.144;2024-03-29T05:34:06;1.30;;;0.63;;
83707;SDS011;73692;49.562;11.144;2024-03-29T05:38:56;2.50;;;1.20;;
83707;SDS011;73692;49.562;11.144;2024-03-29T05:43:47;2.13;;;0.77;;
83707;SDS011;73692;49.562;11.144;2024-03-29T05:48:39;1.02;;;0.70;;
83707;SDS011;73692;49.562;11.144;2024-03-29T05:53:30;0.80;;;0.57;;
83707;SDS011;73692;49.562;11.144;2024-03-29T05:58:20;1.40;;;0.70;;
83707;SDS011;73692;49.562;11.144;2024-03-29T06:03:11;1.60;;;0.77;;
83707;SDS011;73692;49.562;11.144;2024-03-29T06:08:01;0.80;;;0.60;;
83707;SDS011;73692;49.562;11.144;2024-03-29T06:12:52;1.07;;;0.37;;
83707;SDS011;73692;49.562;11.144;2024-03-29T06:18:01;1.42;;;0.75;;
83707;SDS011;73692;49.562;11.144;2024-03-29T06:22:52;1.63;;;0.50;;
83707;SDS011;73692;49.562;11.144;2024-03-29T06:27:42;1.47;;;0.57;;
83707;SDS011;73692;49.562;11.144;2024-03-29T06:30:14;2.13;;;0.88;;
83707;SDS011;73692;49.562;11.144;2024-03-29T06:32:41;1.58;;;0.40;;
83707;SDS011;73692;49.562;11.144;2024-03-29T06:37:32;1.00;;;0.57;;
83707;SDS011;73692;49.562;11.144;2024-03-29T06:42:26;1.47;;;1.07;;
83707;SDS011;73692;49.562;11.144;2024-03-29T06:44:51;1.73;;;0.80;;
83707;SDS011;73692;49.562;11.144;2024-03-29T06:47:19;2.67;;;1.20;;
83707;SDS011;73692;49.562;11.144;2024-03-29T06:52:10;0.95;;;0.60;;
83707;SDS011;73692;49.562;11.144;2024-03-29T06:54:36;1.15;;;0.70;;
83707;SDS011;73692;49.562;11.144;2024-03-29T06:59:28;1.30;;;0.68;;
83707;SDS011;73692;49.562;11.144;2024-03-29T07:04:20;5.47;;;0.77;;
83707;SDS011;73692;49.562;11.144;2024-03-29T07:06:48;1.60;;;0.88;;
83707;SDS011;73692;49.562;11.144;2024-03-29T07:09:16;0.68;;;0.22;;
83707;SDS011;73692;49.562;11.144;2024-03-29T07:11:42;2.25;;;0.82;;
83707;SDS011;73692;49.562;11.144;2024-03-29T07:16:33;1.75;;;1.00;;
83707;SDS011;73692;49.562;11.144;2024-03-29T07:21:24;2.28;;;1.10;;
83707;SDS011;73692;49.562;11.144;2024-03-29T07:26:15;2.80;;;1.10;;
83707;SDS011;73692;49.562;11.144;2024-03-29T07:31:06;1.00;;;0.70;;
83707;SDS011;73692;49.562;11.144;2024-03-29T07:33:35;1.10;;;0.75;;
83707;SDS011;73692;49.562;11.144;2024-03-29T07:36:01;1.65;;;0.90;;
83707;SDS011;73692;49.562;11.144;2024-03-29T07:38:28;1.73;;;0.90;;
83707;SDS011;73692;49.562;11.144;2024-03-29T07:40:54;1.30;;;0.82;;
83707;SDS011;73692;49.562;11.144;2024-03-29T07:43:20;0.90;;;0.75;;
83707;SDS011;73692;49.562;11.144;2024-03-29T07:45:46;1.45;;;0.90;;
83707;SDS011;73692;49.562;11.144;2024-03-29T07:48:14;1.67;;;0.85;;
83707;SDS011;73692;49.562;11.144;2024-03-29T07:50:43;1.05;;;0.25;;
83707;SDS011;73692;49.562;11.144;2024-03-29T07:53:09;1.27;;;0.70;;
83707;SDS011;73692;49.562;11.144;2024-03-29T07:55:35;1.73;;;0.80;;
83707;SDS011;73692;49.562;11.144;2024-03-29T07:58:01;1.40;;;0.73;;
83707;SDS011;73692;49.562;11.144;2024-03-29T08:00:27;1.25;;;0.63;;
83707;SDS011;73692;49.562;11.144;2024-03-29T08:02:53;0.77;;;0.50;;
83707;SDS011;73692;49.562;11.144;2024-03-29T08:07:45;0.95;;;0.70;;
83707;SDS011;73692;49.562;11.144;2024-03-29T08:12:35;0.80;;;0.70;;
83707;SDS011;73692;49.562;11.144;2024-03-29T08:15:02;1.52;;;0.90;;
83707;SDS011;73692;49.562;11.144;2024-03-29T08:17:28;0.98;;;0.60;;
83707;SDS011;73692;49.562;11.144;2024-03-29T08:19:53;0.93;;;0.60;;
83707;SDS011;73692;49.562;11.144;2024-03-29T08:22:19;1.83;;;0.80;;
83707;SDS011;73692;49.562;11.144;2024-03-29T08:24:44;1.15;;;0.80;;
83707;SDS011;73692;49.562;11.144;2024-03-29T08:27:09;1.67;;;0.38;;
83707;SDS011;73692;49.562;11.144;2024-03-29T08:29:35;1.17;;;0.70;;
83707;SDS011;73692;49.562;11.144;2024-03-29T08:32:00;1.23;;;0.80;;
83707;SDS011;73692;49.562;11.144;2024-03-29T08:34:25;0.88;;;0.73;;
83707;SDS011;73692;49.562;11.144;2024-03-29T08:36:53;1.08;;;0.60;;
83707;SDS011;73692;49.562;11.144;2024-03-29T08:39:19;0.70;;;0.70;;
83707;SDS011;73692;49.562;11.144;2024-03-29T08:41:44;1.25;;;0.73;;
83707;SDS011;73692;49.562;11.144;2024-03-29T08:46:35;1.40;;;1.10;;
83707;SDS011;73692;49.562;11.144;2024-03-29T08:49:00;1.17;;;0.67;;
83707;SDS011;73692;49.562;11.144;2024-03-29T08:51:25;0.90;;;0.70;;
83707;SDS011;73692;49.562;11.144;2024-03-29T08:56:16;1.27;;;1.07;;
83707;SDS011;73692;49.562;11.144;2024-03-29T09:01:06;3.43;;;1.40;;
83707;SDS011;73692;49.562;11.144;2024-03-29T09:03:32;1.88;;;0.50;;
83707;SDS011;73692;49.562;11.144;2024-03-29T09:08:23;1.00;;;0.90;;
83707;SDS011;73692;49.562;11.144;2024-03-29T09:10:48;1.17;;;0.70;;
83707;SDS011;73692;49.562;11.144;2024-03-29T09:15:39;2.13;;;1.27;;
83707;SDS011;73692;49.562;11.144;2024-03-29T09:18:04;1.83;;;1.00;;
83707;SDS011;73692;49.562;11.144;2024-03-29T09:20:42;1.17;;;0.60;;
83707;SDS011;73692;49.562;11.144;2024-03-29T09:23:09;1.95;;;0.75;;
83707;SDS011;73692;49.562;11.144;2024-03-29T09:25:34;1.05;;;0.77;;
83707;SDS011;73692;49.562;11.144;2024-03-29T09:27:59;2.30;;;0.70;;
83707;SDS011;73692;49.562;11.144;2024-03-29T09:30:25;1.95;;;0.70;;
83707;SDS011;73692;49.562;11.144;2024-03-29T09:32:50;2.40;;;0.80;;
83707;SDS011;73692;49.562;11.144;2024-03-29T09:37:42;1.02;;;0.70;;
83707;SDS011;73692;49.562;11.144;2024-03-29T09:42:33;1.05;;;0.52;;
83707;SDS011;73692;49.562;11.144;2024-03-29T09:47:24;2.17;;;0.65;;
83707;SDS011;73692;49.562;11.144;2024-03-29T09:49:50;1.88;;;0.93;;
83707;SDS011;73692;49.562;11.144;2024-03-29T09:54:41;2.55;;;0.45;;
83707;SDS011;73692;49.562;11.144;2024-03-29T09:59:32;3.15;;;0.80;;
83707;SDS011;73692;49.562;11.144;2024-03-29T10:01:59;3.15;;;0.90;;
83707;SDS011;73692;49.562;11.144;2024-03-29T10:06:50;1.98;;;0.90;;
83707;SDS011;73692;49.562;11.144;2024-03-29T10:11:48;1.48;;;0.88;;
83707;SDS011;73692;49.562;11.144;2024-03-29T10:14:13;2.03;;;0.95;;
83707;SDS011;73692;49.562;11.144;2024-03-29T10:19:04;1.33;;;0.80;;
83707;SDS011;73692;49.562;11.144;2024-03-29T10:21:31;3.33;;;1.30;;
83707;SDS011;73692;49.562;11.144;2024-03-29T10:26:22;1.77;;;0.60;;
83707;SDS011;73692;49.562;11.144;2024-03-29T10:28:47;2.07;;;0.87;;
83707;SDS011;73692;49.562;11.144;2024-03-29T10:31:13;1.75;;;0.45;;
83707;SDS011;73692;49.562;11.144;2024-03-29T10:36:06;1.10;;;0.80;;
83707;SDS011;73692;49.562;11.144;2024-03-29T10:38:34;1.23;;;0.68;;
83707;SDS011;73692;49.562;11.144;2024-03-29T10:41:01;2.58;;;0.95;;
83707;SDS011;73692;49.562;11.144;2024-03-29T10:43:28;2.28;;;0.88;;
83707;SDS011;73692;49.562;11.144;2024-03-29T10:48:24;5.03;;;1.88;;
83707;SDS011;73692;49.562;11.144;2024-03-29T10:50:51;5.95;;;2.10;;
83707;SDS011;73692;49.562;11.144;2024-03-29T10:53:18;1.60;;;0.70;;
83707;SDS011;73692;49.562;11.144;2024-03-29T10:55:44;2.53;;;1.40;;
83707;SDS011;73692;49.562;11.144;2024-03-29T10:58:10;1.85;;;1.10;;
83707;SDS011;73692;49.562;11.144;2024-03-29T11:00:41;2.95;;;1.70;;
83707;SDS011;73692;49.562;11.144;2024-03-29T11:03:20;4.47;;;2.03;;
83707;SDS011;73692;49.562;11.144;2024-03-29T11:05:52;3.05;;;1.63;;
83707;SDS011;73692;49.562;11.144;2024-03-29T11:08:23;2.67;;;1.50;;
83707;SDS011;73692;49.562;11.144;2024-03-29T11:10:50;1.85;;;1.33;;
83707;SDS011;73692;49.562;11.144;2024-03-29T11:16:13;1.65;;;0.80;;
83707;SDS011;73692;49.562;11.144;2024-03-29T11:18:41;1.20;;;0.82;;
83707;SDS011;73692;49.562;11.144;2024-03-29T11:21:07;3.13;;;1.20;;
83707;SDS011;73692;49.562;11.144;2024-03-29T11:23:34;1.17;;;0.35;;
83707;SDS011;73692;49.562;11.144;2024-03-29T11:26:00;2.00;;;0.95;;
83707;SDS011;73692;49.562;11.144;2024-03-29T11:28:29;3.15;;;1.25;;
83707;SDS011;73692;49.562;11.144;2024-03-29T11:30:59;2.17;;;0.88;;
83707;SDS011;73692;49.562;11.144;2024-03-29T11:33:30;1.98;;;0.55;;
83707;SDS011;73692;49.562;11.144;2024-03-29T11:38:56;3.30;;;1.10;;
83707;SDS011;73692;49.562;11.144;2024-03-29T11:41:23;1.77;;;0.82;;
83707;SDS011;73692;49.562;11.144;2024-03-29T11:43:49;2.17;;;0.60;;
83707;SDS011;73692;49.562;11.144;2024-03-29T11:46:16;1.73;;;0.80;;
83707;SDS011;73692;49.562;11.144;2024-03-29T11:48:41;1.63;;;0.95;;
83707;SDS011;73692;49.562;11.144;2024-03-29T11:53:35;2.17;;;0.73;;
83707;SDS011;73692;49.562;11.144;2024-03-29T11:56:02;2.20;;;0.85;;
83707;SDS011;73692;49.562;11.144;2024-03-29T11:58:28;3.03;;;1.30;;
83707;SDS011;73692;49.562;11.144;2024-03-29T12:00:55;1.70;;;0.63;;
83707;SDS011;73692;49.562;11.144;2024-03-29T12:03:22;1.52;;;0.90;;
83707;SDS011;73692;49.562;11.144;2024-03-29T12:05:49;2.97;;;1.27;;
83707;SDS011;73692;49.562;11.144;2024-03-29T12:08:16;2.55;;;1.08;;
83707;SDS011;73692;49.562;11.144;2024-03-29T12:10:41;4.00;;;1.30;;
83707;SDS011;73692;49.562;11.144;2024-03-29T12:13:06;2.33;;;1.25;;
83707;SDS011;73692;49.562;11.144;2024-03-29T12:15:32;2.38;;;1.23;;
83707;SDS011;73692;49.562;11.144;2024-03-29T12:20:24;1.38;;;0.93;;
83707;SDS011;73692;49.562;11.144;2024-03-29T12:22:49;2.63;;;1.20;;
83707;SDS011;73692;49.562;11.144;2024-03-29T12:25:15;2.30;;;1.30;;
83707;SDS011;73692;49.562;11.144;2024-03-29T12:30:11;2.95;;;1.50;;
83707;SDS011;73692;49.562;11.144;2024-03-29T12:32:37;2.90;;;1.77;;
83707;SDS011;73692;49.562;11.144;2024-03-29T12:37:37;2.40;;;1.52;;
83707;SDS011;73692;49.562;11.144;2024-03-29T12:40:05;2.03;;;1.30;;
83707;SDS011;73692;49.562;11.144;2024-03-29T12:42:40;3.35;;;1.52;;
83707;SDS011;73692;49.562;11.144;2024-03-29T12:45:05;2.20;;;1.60;;
83707;SDS011;73692;49.562;11.144;2024-03-29T12:47:32;3.72;;;1.88;;
83707;SDS011;73692;49.562;11.144;2024-03-29T12:49:59;2.92;;;1.42;;
83707;SDS011;73692;49.562;11.144;2024-03-29T12:52:25;1.85;;;1.08;;
83707;SDS011;73692;49.562;11.144;2024-03-29T12:54:50;1.58;;;1.13;;
83707;SDS011;73692;49.562;11.144;2024-03-29T12:57:16;1.83;;;1.20;;
83707;SDS011;73692;49.562;11.144;2024-03-29T12:59:41;1.67;;;1.20;;
83707;SDS011;73692;49.562;11.144;2024-03-29T13:02:07;2.75;;;1.58;;
83707;SDS011;73692;49.562;11.144;2024-03-29T13:04:33;1.67;;;0.97;;
83707;SDS011;73692;49.562;11.144;2024-03-29T13:06:58;2.17;;;1.10;;
83707;SDS011;73692;49.562;11.144;2024-03-29T13:09:23;1.98;;;1.17;;
83707;SDS011;73692;49.562;11.144;2024-03-29T13:11:48;1.93;;;0.80;;
83707;SDS011;73692;49.562;11.144;2024-03-29T13:14:14;1.77;;;0.93;;
83707;SDS011;73692;49.562;11.144;2024-03-29T13:16:39;1.55;;;1.08;;
83707;SDS011;73692;49.562;11.144;2024-03-29T13:19:04;1.48;;;1.00;;
83707;SDS011;73692;49.562;11.144;2024-03-29T13:21:30;1.95;;;1.00;;
83707;SDS011;73692;49.562;11.144;2024-03-29T13:23:56;1.63;;;0.77;;
83707;SDS011;73692;49.562;11.144;2024-03-29T13:26:21;0.70;;;0.30;;
83707;SDS011;73692;49.562;11.144;2024-03-29T13:28:46;2.47;;;1.13;;
83707;SDS011;73692;49.562;11.144;2024-03-29T13:31:12;1.87;;;0.97;;
83707;SDS011;73692;49.562;11.144;2024-03-29T13:33:37;0.93;;;0.70;;
83707;SDS011;73692;49.562;11.144;2024-03-29T13:36:03;1.92;;;1.00;;
83707;SDS011;73692;49.562;11.144;2024-03-29T13:38:28;1.33;;;0.80;;
83707;SDS011;73692;49.562;11.144;2024-03-29T13:40:54;1.08;;;0.80;;
83707;SDS011;73692;49.562;11.144;2024-03-29T13:43:21;2.80;;;1.08;;
83707;SDS011;73692;49.562;11.144;2024-03-29T13:45:47;1.55;;;1.00;;
83707;SDS011;73692;49.562;11.144;2024-03-29T13:48:13;2.70;;;1.00;;
83707;SDS011;73692;49.562;11.144;2024-03-29T13:50:39;2.10;;;0.80;;
83707;SDS011;73692;49.562;11.144;2024-03-29T13:53:04;1.33;;;1.20;;
83707;SDS011;73692;49.562;11.144;2024-03-29T13:55:29;1.15;;;0.50;;
83707;SDS011;73692;49.562;11.144;2024-03-29T13:57:54;1.60;;;1.20;;
83707;SDS011;73692;49.562;11.144;2024-03-29T14:00:20;1.63;;;0.90;;
83707;SDS011;73692;49.562;11.144;2024-03-29T14:02:46;1.63;;;1.00;;
83707;SDS011;73692;49.562;11.144;2024-03-29T14:05:11;1.90;;;1.20;;
83707;SDS011;73692;49.562;11.144;2024-03-29T14:07:37;1.77;;;0.95;;
83707;SDS011;73692;49.562;11.144;2024-03-29T14:10:03;1.75;;;0.98;;
83707;SDS011;73692;49.562;11.144;2024-03-29T14:12:31;2.55;;;1.25;;
83707;SDS011;73692;49.562;11.144;2024-03-29T14:14:56;0.88;;;0.63;;
83707;SDS011;73692;49.562;11.144;2024-03-29T14:17:22;1.17;;;1.00;;
83707;SDS011;73692;49.562;11.144;2024-03-29T14:19:47;2.30;;;0.75;;
83707;SDS011;73692;49.562;11.144;2024-03-29T14:22:14;1.70;;;0.90;;
83707;SDS011;73692;49.562;11.144;2024-03-29T14:24:45;0.75;;;0.35;;
83707;SDS011;73692;49.562;11.144;2024-03-29T14:27:10;0.95;;;0.60;;
83707;SDS011;73692;49.562;11.144;2024-03-29T14:29:37;3.33;;;1.20;;
83707;SDS011;73692;49.562;11.144;2024-03-29T14:32:03;1.88;;;1.17;;
83707;SDS011;73692;49.562;11.144;2024-03-29T14:34:28;1.55;;;0.90;;
83707;SDS011;73692;49.562;11.144;2024-03-29T14:36:56;2.38;;;1.20;;
83707;SDS011;73692;49.562;11.144;2024-03-29T14:39:22;2.78;;;1.23;;
83707;SDS011;73692;49.562;11.144;2024-03-29T14:41:47;1.73;;;1.17;;
83707;SDS011;73692;49.562;11.144;2024-03-29T14:44:15;1.50;;;0.88;;
83707;SDS011;73692;49.562;11.144;2024-03-29T14:46:40;1.98;;;1.05;;
83707;SDS011;73692;49.562;11.144;2024-03-29T14:49:06;1.92;;;1.05;;
83707;SDS011;73692;49.562;11.144;2024-03-29T14:51:33;2.13;;;1.00;;
83707;SDS011;73692;49.562;11.144;2024-03-29T14:53:59;2.42;;;1.05;;
83707;SDS011;73692;49.562;11.144;2024-03-29T14:56:26;3.30;;;1.00;;
83707;SDS011;73692;49.562;11.144;2024-03-29T14:58:55;1.63;;;0.80;;
83707;SDS011;73692;49.562;11.144;2024-03-29T15:01:20;1.50;;;0.80;;
83707;SDS011;73692;49.562;11.144;2024-03-29T15:03:46;1.30;;;0.80;;
83707;SDS011;73692;49.562;11.144;2024-03-29T15:06:11;1.77;;;0.90;;
83707;SDS011;73692;49.562;11.144;2024-03-29T15:08:36;1.70;;;1.00;;
83707;SDS011;73692;49.562;11.144;2024-03-29T15:11:02;1.67;;;1.30;;
83707;SDS011;73692;49.562;11.144;2024-03-29T15:13:29;1.52;;;0.80;;
83707;SDS011;73692;49.562;11.144;2024-03-29T15:15:55;3.40;;;1.58;;
83707;SDS011;73692;49.562;11.144;2024-03-29T15:18:21;3.08;;;0.95;;
83707;SDS011;73692;49.562;11.144;2024-03-29T15:20:56;1.35;;;0.70;;
83707;SDS011;73692;49.562;11.144;2024-03-29T15:23:22;8.10;;;3.08;;
83707;SDS011;73692;49.562;11.144;2024-03-29T15:25:52;5.93;;;2.42;;
83707;SDS011;73692;49.562;11.144;2024-03-29T15:28:21;3.50;;;1.50;;
83707;SDS011;73692;49.562;11.144;2024-03-29T15:31:11;9.45;;;4.35;;
83707;SDS011;73692;49.562;11.144;2024-03-29T15:33:37;15.82;;;5.53;;
83707;SDS011;73692;49.562;11.144;2024-03-29T15:36:03;2.80;;;1.20;;
83707;SDS011;73692;49.562;11.144;2024-03-29T15:38:29;10.77;;;3.35;;
83707;SDS011;73692;49.562;11.144;2024-03-29T15:40:56;3.42;;;1.58;;
83707;SDS011;73692;49.562;11.144;2024-03-29T15:43:21;4.53;;;1.60;;
83707;SDS011;73692;49.562;11.144;2024-03-29T15:45:46;3.90;;;1.80;;
83707;SDS011;73692;49.562;11.144;2024-03-29T15:48:12;4.33;;;2.70;;
83707;SDS011;73692;49.562;11.144;2024-03-29T15:50:37;1.77;;;0.88;;
83707;SDS011;73692;49.562;11.144;2024-03-29T15:53:02;6.57;;;3.17;;
83707;SDS011;73692;49.562;11.144;2024-03-29T15:55:29;7.50;;;3.03;;
83707;SDS011;73692;49.562;11.144;2024-03-29T15:57:55;3.67;;;1.63;;
83707;SDS011;73692;49.562;11.144;2024-03-29T16:00:23;2.30;;;1.50;;
83707;SDS011;73692;49.562;11.144;2024-03-29T16:02:49;2.40;;;0.98;;
83707;SDS011;73692;49.562;11.144;2024-03-29T16:05:15;2.05;;;0.50;;
83707;SDS011;73692;49.562;11.144;2024-03-29T16:07:40;2.45;;;1.33;;
83707;SDS011;73692;49.562;11.144;2024-03-29T16:10:06;4.60;;;1.95;;
83707;SDS011;73692;49.562;11.144;2024-03-29T16:12:31;1.70;;;1.00;;
83707;SDS011;73692;49.562;11.144;2024-03-29T16:14:57;1.97;;;1.20;;
83707;SDS011;73692;49.562;11.144;2024-03-29T16:17:22;1.90;;;0.90;;
83707;SDS011;73692;49.562;11.144;2024-03-29T16:19:47;2.40;;;1.50;;
83707;SDS011;73692;49.562;11.144;2024-03-29T16:22:13;3.65;;;1.88;;
83707;SDS011;73692;49.562;11.144;2024-03-29T16:24:39;7.88;;;4.68;;
83707;SDS011;73692;49.562;11.144;2024-03-29T16:27:05;9.88;;;5.50;;
83707;SDS011;73692;49.562;11.144;2024-03-29T16:29:30;11.38;;;7.57;;
83707;SDS011;73692;49.562;11.144;2024-03-29T16:31:55;7.67;;;4.80;;
83707;SDS011;73692;49.562;11.144;2024-03-29T16:34:21;6.60;;;4.13;;
83707;SDS011;73692;49.562;11.144;2024-03-29T16:36:46;2.30;;;1.17;;
83707;SDS011;73692;49.562;11.144;2024-03-29T16:39:12;2.13;;;1.10;;
83707;SDS011;73692;49.562;11.144;2024-03-29T16:41:37;2.22;;;1.10;;
83707;SDS011;73692;49.562;11.144;2024-03-29T16:44:03;2.00;;;1.25;;
83707;SDS011;73692;49.562;11.144;2024-03-29T16:46:28;2.10;;;0.95;;
83707;SDS011;73692;49.562;11.144;2024-03-29T16:48:54;1.90;;;1.08;;
83707;SDS011;73692;49.562;11.144;2024-03-29T16:51:19;3.83;;;2.53;;
83707;SDS011;73692;49.562;11.144;2024-03-29T16:53:44;3.05;;;1.58;;
83707;SDS011;73692;49.562;11.144;2024-03-29T16:56:10;2.30;;;1.30;;
83707;SDS011;73692;49.562;11.144;2024-03-29T16:58:35;2.47;;;1.88;;
83707;SDS011;73692;49.562;11.144;2024-03-29T17:01:00;1.73;;;1.03;;
83707;SDS011;73692;49.562;11.144;2024-03-29T17:03:26;0.95;;;0.65;;
83707;SDS011;73692;49.562;11.144;2024-03-29T17:05:51;2.53;;;1.08;;
83707;SDS011;73692;49.562;11.144;2024-03-29T17:08:16;1.58;;;0.90;;
83707;SDS011;73692;49.562;11.144;2024-03-29T17:10:42;1.95;;;1.02;;
83707;SDS011;73692;49.562;11.144;2024-03-29T17:13:07;1.90;;;1.00;;
83707;SDS011;73692;49.562;11.144;2024-03-29T17:15:32;1.40;;;0.90;;
83707;SDS011;73692;49.562;11.144;2024-03-29T17:17:58;2.05;;;1.15;;
83707;SDS011;73692;49.562;11.144;2024-03-29T17:20:23;1.88;;;1.20;;
83707;SDS011;73692;49.562;11.144;2024-03-29T17:22:49;2.58;;;1.25;;
83707;SDS011;73692;49.562;11.144;2024-03-29T17:25:14;2.17;;;1.08;;
83707;SDS011;73692;49.562;11.144;2024-03-29T17:27:39;2.30;;;1.30;;
83707;SDS011;73692;49.562;11.144;2024-03-29T17:30:05;3.10;;;1.30;;
83707;SDS011;73692;49.562;11.144;2024-03-29T17:32:31;2.65;;;1.70;;
83707;SDS011;73692;49.562;11.144;2024-03-29T17:34:57;2.05;;;1.10;;
83707;SDS011;73692;49.562;11.144;2024-03-29T17:37:22;2.80;;;1.45;;
83707;SDS011;73692;49.562;11.144;2024-03-29T17:39:47;3.60;;;1.40;;
83707;SDS011;73692;49.562;11.144;2024-03-29T17:42:12;2.23;;;1.50;;
83707;SDS011;73692;49.562;11.144;2024-03-29T17:44:38;4.50;;;1.75;;
83707;SDS011;73692;49.562;11.144;2024-03-29T17:47:03;3.20;;;1.77;;
83707;SDS011;73692;49.562;11.144;2024-03-29T17:49:29;3.15;;;1.67;;
83707;SDS011;73692;49.562;11.144;2024-03-29T17:51:54;2.90;;;1.57;;
83707;SDS011;73692;49.562;11.144;2024-03-29T17:54:19;3.03;;;1.48;;
83707;SDS011;73692;49.562;11.144;2024-03-29T17:56:44;3.23;;;1.00;;
83707;SDS011;73692;49.562;11.144;2024-03-29T17:59:10;4.32;;;2.60;;
83707;SDS011;73692;49.562;11.144;2024-03-29T18:01:35;8.98;;;4.68;;
83707;SDS011;73692;49.562;11.144;2024-03-29T18:06:26;3.05;;;1.40;;
83707;SDS011;73692;49.562;11.144;2024-03-29T18:08:52;3.33;;;1.30;;
83707;SDS011;73692;49.562;11.144;2024-03-29T18:11:17;2.35;;;1.30;;
83707;SDS011;73692;49.562;11.144;2024-03-29T18:13:43;2.50;;;1.27;;
83707;SDS011;73692;49.562;11.144;2024-03-29T18:16:09;2.65;;;1.33;;
83707;SDS011;73692;49.562;11.144;2024-03-29T18:18:37;2.35;;;1.40;;
83707;SDS011;73692;49.562;11.144;2024-03-29T18:21:02;2.92;;;1.67;;
83707;SDS011;73692;49.562;11.144;2024-03-29T18:23:28;2.78;;;1.73;;
83707;SDS011;73692;49.562;11.144;2024-03-29T18:28:18;3.47;;;1.60;;
83707;SDS011;73692;49.562;11.144;2024-03-29T18:30:46;4.10;;;2.10;;
83707;SDS011;73692;49.562;11.144;2024-03-29T18:33:12;3.58;;;2.20;;
83707;SDS011;73692;49.562;11.144;2024-03-29T18:38:03;3.15;;;1.80;;
83707;SDS011;73692;49.562;11.144;2024-03-29T18:42:54;3.27;;;1.83;;
83707;SDS011;73692;49.562;11.144;2024-03-29T18:45:21;4.53;;;2.50;;
83707;SDS011;73692;49.562;11.144;2024-03-29T18:50:12;4.70;;;2.65;;
83707;SDS011;73692;49.562;11.144;2024-03-29T18:55:03;4.57;;;2.37;;
83707;SDS011;73692;49.562;11.144;2024-03-29T18:59:54;4.32;;;1.80;;
83707;SDS011;73692;49.562;11.144;2024-03-29T19:04:44;6.33;;;3.03;;
83707;SDS011;73692;49.562;11.144;2024-03-29T19:09:35;4.10;;;2.13;;
83707;SDS011;73692;49.562;11.144;2024-03-29T19:14:26;4.45;;;2.42;;
83707;SDS011;73692;49.562;11.144;2024-03-29T19:16:53;3.88;;;1.75;;
83707;SDS011;73692;49.562;11.144;2024-03-29T19:21:47;3.92;;;2.20;;
83707;SDS011;73692;49.562;11.144;2024-03-29T19:24:13;4.10;;;1.90;;
83707;SDS011;73692;49.562;11.144;2024-03-29T19:26:39;4.18;;;2.33;;
83707;SDS011;73692;49.562;11.144;2024-03-29T19:29:04;3.72;;;2.42;;
83707;SDS011;73692;49.562;11.144;2024-03-29T19:31:30;4.27;;;2.53;;
83707;SDS011;73692;49.562;11.144;2024-03-29T19:36:20;5.23;;;3.00;;
83707;SDS011;73692;49.562;11.144;2024-03-29T19:41:10;4.20;;;2.10;;
83707;SDS011;73692;49.562;11.144;2024-03-29T19:46:01;3.73;;;2.43;;
83707;SDS011;73692;49.562;11.144;2024-03-29T19:48:27;3.95;;;2.30;;
83707;SDS011;73692;49.562;11.144;2024-03-29T19:53:17;4.30;;;2.03;;
83707;SDS011;73692;49.562;11.144;2024-03-29T19:58:12;5.22;;;2.75;;
83707;SDS011;73692;49.562;11.144;2024-03-29T20:03:03;5.70;;;2.17;;
83707;SDS011;73692;49.562;11.144;2024-03-29T20:07:54;3.87;;;1.93;;
83707;SDS011;73692;49.562;11.144;2024-03-29T20:12:44;2.80;;;1.80;;
83707;SDS011;73692;49.562;11.144;2024-03-29T20:17:35;3.13;;;1.57;;
83707;SDS011;73692;49.562;11.144;2024-03-29T20:20:00;2.33;;;1.43;;
83707;SDS011;73692;49.562;11.144;2024-03-29T20:24:50;2.70;;;1.30;;
83707;SDS011;73692;49.562;11.144;2024-03-29T20:29:41;1.80;;;0.50;;
83707;SDS011;73692;49.562;11.144;2024-03-29T20:32:06;2.72;;;1.10;;
83707;SDS011;73692;49.562;11.144;2024-03-29T20:34:33;3.22;;;1.60;;
83707;SDS011;73692;49.562;11.144;2024-03-29T20:39:24;2.20;;;0.80;;
83707;SDS011;73692;49.562;11.144;2024-03-29T20:44:14;2.47;;;1.20;;
83707;SDS011;73692;49.562;11.144;2024-03-29T20:49:05;2.63;;;0.70;;
83707;SDS011;73692;49.562;11.144;2024-03-29T20:53:55;2.77;;;1.40;;
83707;SDS011;73692;49.562;11.144;2024-03-29T20:58:46;3.33;;;1.40;;
83707;SDS011;73692;49.562;11.144;2024-03-29T21:01:12;2.25;;;1.00;;
83707;SDS011;73692;49.562;11.144;2024-03-29T21:03:43;1.95;;;1.27;;
83707;SDS011;73692;49.562;11.144;2024-03-29T21:06:27;2.53;;;1.35;;
83707;SDS011;73692;49.562;11.144;2024-03-29T21:08:52;2.40;;;1.00;;
83707;SDS011;73692;49.562;11.144;2024-03-29T21:11:18;1.85;;;1.00;;
83707;SDS011;73692;49.562;11.144;2024-03-29T21:13:44;1.67;;;0.90;;
83707;SDS011;73692;49.562;11.144;2024-03-29T21:16:09;1.88;;;1.08;;
83707;SDS011;73692;49.562;11.144;2024-03-29T21:18:34;1.77;;;0.80;;
83707;SDS011;73692;49.562;11.144;2024-03-29T21:21:00;2.83;;;1.00;;
83707;SDS011;73692;49.562;11.144;2024-03-29T21:23:25;2.97;;;1.02;;
83707;SDS011;73692;49.562;11.144;2024-03-29T21:25:50;2.55;;;0.85;;
83707;SDS011;73692;49.562;11.144;2024-03-29T21:28:16;3.47;;;1.25;;
83707;SDS011;73692;49.562;11.144;2024-03-29T21:33:06;2.93;;;1.70;;
83707;SDS011;73692;49.562;11.144;2024-03-29T21:35:31;3.05;;;1.40;;
83707;SDS011;73692;49.562;11.144;2024-03-29T21:37:58;4.00;;;1.48;;
83707;SDS011;73692;49.562;11.144;2024-03-29T21:40:24;3.80;;;1.58;;
83707;SDS011;73692;49.562;11.144;2024-03-29T21:42:50;3.30;;;1.27;;
83707;SDS011;73692;49.562;11.144;2024-03-29T21:45:15;5.53;;;1.60;;
83707;SDS011;73692;49.562;11.144;2024-03-29T21:47:40;3.13;;;1.42;;
83707;SDS011;73692;49.562;11.144;2024-03-29T21:50:06;4.35;;;1.50;;
83707;SDS011;73692;49.562;11.144;2024-03-29T21:54:57;7.57;;;2.05;;
83707;SDS011;73692;49.562;11.144;2024-03-29T21:57:23;5.97;;;1.57;;
83707;SDS011;73692;49.562;11.144;2024-03-29T22:02:13;6.37;;;1.53;;
83707;SDS011;73692;49.562;11.144;2024-03-29T22:04:39;5.78;;;1.45;;
83707;SDS011;73692;49.562;11.144;2024-03-29T22:07:05;6.82;;;1.58;;
83707;SDS011;73692;49.562;11.144;2024-03-29T22:09:31;7.57;;;1.58;;
83707;SDS011;73692;49.562;11.144;2024-03-29T22:11:57;5.13;;;1.77;;
83707;SDS011;73692;49.562;11.144;2024-03-29T22:14:23;7.72;;;1.65;;
83707;SDS011;73692;49.562;11.144;2024-03-29T22:16:48;10.05;;;2.38;;
83707;SDS011;73692;49.562;11.144;2024-03-29T22:19:14;8.43;;;1.85;;
83707;SDS011;73692;49.562;11.144;2024-03-29T22:21:39;13.65;;;2.63;;
83707;SDS011;73692;49.562;11.144;2024-03-29T22:24:05;7.43;;;1.60;;
83707;SDS011;73692;49.562;11.144;2024-03-29T22:26:31;12.13;;;2.42;;
83707;SDS011;73692;49.562;11.144;2024-03-29T22:28:56;10.23;;;2.67;;
83707;SDS011;73692;49.562;11.144;2024-03-29T22:31:22;11.20;;;2.60;;
83707;SDS011;73692;49.562;11.144;2024-03-29T22:33:47;15.27;;;2.88;;
83707;SDS011;73692;49.562;11.144;2024-03-29T22:36:13;10.10;;;3.53;;